Time;durP1;ratioP1;P1;durP2;ratioP2;P2;SDS_P1;SDS_P2;PMS_P1;PMS_P2;Temp;Humidity;BMP_temperature;BMP_pressure;BME280_temperature;BME280_humidity;BME280_pressure;Samples;Min_cycle;Max_cycle;Signal;HPM_P1;HPM_P2
2022/05/30 04:00:12;;;;;;;96.10;3.53;;;4.30;96.30;;;;;;6066329;23;20401;31
2022/05/30 04:02:37;;;;;;;57.47;3.50;;;4.40;96.30;;;;;;4935036;29;20447;-78
2022/05/30 04:05:04;;;;;;;88.97;3.50;;;4.40;96.30;;;;;;4921158;29;20481;-77
2022/05/30 04:07:30;;;;;;;74.40;3.50;;;4.50;96.30;;;;;;4937912;29;20207;-78
2022/05/30 04:09:55;;;;;;;215.00;6.03;;;4.50;96.30;;;;;;4938370;29;20942;-76
2022/05/30 04:12:22;;;;;;;134.77;5.87;;;4.60;96.30;;;;;;4955587;29;20682;-77
2022/05/30 04:14:59;;;;;;;8.53;2.40;;;4.60;96.30;;;;;;4961497;29;20207;-79
2022/05/30 04:17:25;;;;;;;2.90;1.80;;;4.70;96.30;;;;;;4951485;29;20418;-76
2022/05/30 04:19:51;;;;;;;2.90;1.60;;;4.80;96.30;;;;;;4970270;29;20433;-78
2022/05/30 05:09:22;;;;;;;3.33;2.60;;;5.60;96.30;;;;;;4430531;23;20484;-75
2022/05/30 05:11:48;;;;;;;2.43;2.23;;;6.20;96.30;;;;;;4975798;28;20987;-75
2022/05/30 05:14:17;;;;;;;2.97;2.67;;;7.90;96.30;;;;;;4975675;28;20417;-78
2022/05/30 05:16:43;;;;;;;1.90;1.80;;;9.70;96.30;;;;;;4974338;28;20237;-77
2022/05/30 05:19:09;;;;;;;2.77;1.90;;;11.80;96.30;;;;;;4973303;28;20414;-78
2022/05/30 05:21:38;;;;;;;1.57;1.47;;;12.90;96.30;;;;;;4975544;28;20245;-79
2022/05/30 05:24:06;;;;;;;2.00;1.57;;;13.90;96.30;;;;;;4975821;28;20690;-78
2022/05/30 05:26:31;;;;;;;1.60;1.50;;;14.40;96.30;;;;;;4975986;28;20410;-78
2022/05/30 05:28:57;;;;;;;2.90;1.30;;;15.00;96.30;;;;;;4974919;28;20417;-78
2022/05/30 05:31:26;;;;;;;1.37;1.27;;;14.60;96.30;;;;;;4975009;28;20197;-78
2022/05/30 05:33:54;;;;;;;1.60;1.50;;;14.60;96.30;;;;;;4975254;28;20702;-78
2022/05/30 05:36:21;;;;;;;2.90;1.50;;;13.30;96.30;;;;;;4975315;28;20418;-78
2022/05/30 05:38:46;;;;;;;2.00;1.40;;;14.10;96.30;;;;;;4974545;28;20772;-78
2022/05/30 05:41:12;;;;;;;1.53;1.40;;;14.10;96.30;;;;;;4975018;28;20430;-77
2022/05/30 05:43:37;;;;;;;1.70;1.50;;;12.50;96.30;;;;;;4974936;28;20210;-77
2022/05/30 05:46:03;;;;;;;3.43;1.10;;;11.60;96.30;;;;;;4974864;28;20210;-78
2022/05/30 05:48:29;;;;;;;1.50;1.40;;;11.10;96.30;;;;;;4963987;28;20225;-78
2022/05/30 05:50:54;;;;;;;1.90;1.57;;;11.00;96.30;;;;;;4966444;28;20714;-78
2022/05/30 05:53:20;;;;;;;1.83;1.33;;;10.90;96.30;;;;;;4969983;28;20190;-77
2022/05/30 05:55:45;;;;;;;1.40;1.30;;;10.80;96.30;;;;;;4960021;28;20204;-77
2022/05/30 05:58:11;;;;;;;2.30;1.70;;;10.70;96.30;;;;;;4973294;28;20545;-77
2022/05/30 06:00:36;;;;;;;1.80;1.47;;;10.20;96.30;;;;;;4969930;28;20213;-78
2022/05/30 06:03:02;;;;;;;1.63;1.53;;;10.10;96.30;;;;;;4963311;28;20179;-77
2022/05/30 06:05:30;;;;;;;1.33;1.23;;;10.10;96.30;;;;;;4963529;28;20199;-78
2022/05/30 06:07:59;;;;;;;3.77;1.60;;;10.20;96.30;;;;;;4953989;29;20175;-78
2022/05/30 06:10:25;;;;;;;1.57;1.40;;;9.90;96.30;;;;;;4955243;29;20466;-78
2022/05/30 06:12:50;;;;;;;2.03;1.40;;;10.00;96.30;;;;;;4955223;28;20410;-78
2022/05/30 06:15:18;;;;;;;5.27;1.60;;;10.20;96.30;;;;;;4955099;28;20418;-77
2022/05/30 06:17:44;;;;;;;3.40;2.00;;;10.30;96.30;;;;;;4954998;28;20253;-77
2022/05/30 06:20:13;;;;;;;1.93;1.83;;;10.60;96.30;;;;;;4954878;28;20467;-78
2022/05/30 06:22:39;;;;;;;2.27;1.67;;;10.90;96.30;;;;;;4954999;28;20418;-77
2022/05/30 06:25:05;;;;;;;3.10;2.50;;;11.10;96.30;;;;;;4954751;29;20469;-78
2022/05/30 06:27:31;;;;;;;3.87;3.40;;;11.60;96.30;;;;;;4954582;28;20246;-78
2022/05/30 06:29:57;;;;;;;3.57;3.00;;;12.10;96.30;;;;;;4962104;28;20467;-78
2022/05/30 06:32:23;;;;;;;6.23;2.90;;;12.50;96.30;;;;;;4961799;28;20845;-77
2022/05/30 06:34:48;;;;;;;2.90;2.70;;;12.60;96.30;;;;;;4966876;28;20182;-79
2022/05/30 06:37:14;;;;;;;3.50;3.20;;;13.30;96.30;;;;;;4974039;28;20186;-79
2022/05/30 06:39:40;;;;;;;2.43;2.23;;;14.80;96.30;;;;;;4968405;28;20558;-79
2022/05/30 06:42:10;;;;;;;3.77;2.63;;;14.80;96.30;;;;;;4966961;28;20202;-79
2022/05/30 06:44:36;;;;;;;3.40;3.10;;;14.70;96.30;;;;;;4977854;28;20479;-78
2022/05/30 06:47:03;;;;;;;3.27;2.80;;;14.30;96.30;;;;;;4977531;28;20406;-79
2022/05/30 06:49:29;;;;;;;3.20;2.57;;;13.20;96.30;;;;;;4972233;28;20506;-79
2022/05/30 06:51:54;;;;;;;2.90;2.60;;;13.00;96.30;;;;;;4967471;28;20470;-79
2022/05/30 06:54:20;;;;;;;4.93;3.20;;;12.80;96.30;;;;;;4956043;29;20294;-79
2022/05/30 06:59:32;;;;;;;2.87;2.67;;;12.90;96.30;;;;;;4937761;28;20186;-79
2022/05/30 07:02:03;;;;;;;3.33;2.63;;;13.00;96.30;;;;;;4965269;28;20438;-78
2022/05/30 07:04:35;;;;;;;3.73;2.53;;;13.00;96.30;;;;;;4974073;28;20543;-78
2022/05/30 07:07:04;;;;;;;4.13;3.00;;;12.90;96.30;;;;;;4973596;28;20777;-78
2022/05/30 07:09:29;;;;;;;3.53;2.50;;;13.70;96.30;;;;;;4971972;28;20492;-78
2022/05/30 07:11:55;;;;;;;6.80;2.90;;;14.00;96.30;;;;;;4964437;28;20445;-78
2022/05/30 07:14:20;;;;;;;3.00;2.70;;;15.00;96.30;;;;;;4955448;28;20190;-78
2022/05/30 07:16:46;;;;;;;3.70;2.70;;;15.60;96.30;;;;;;4953869;29;20194;-78
2022/05/30 07:19:11;;;;;;;3.17;2.73;;;16.30;96.30;;;;;;4955196;29;20183;-78
2022/05/30 07:21:39;;;;;;;4.83;2.70;;;16.20;96.30;;;;;;4954751;29;20202;-77
2022/05/30 07:24:05;;;;;;;3.93;2.50;;;16.10;96.30;;;;;;4952474;28;20186;-78
2022/05/30 07:26:31;;;;;;;2.33;2.03;;;16.00;96.30;;;;;;4953037;29;20425;-77
2022/05/30 07:28:56;;;;;;;3.80;2.07;;;15.70;96.30;;;;;;4953942;29;20234;-77
2022/05/30 07:31:28;;;;;;;2.33;2.00;;;14.60;96.30;;;;;;4955935;28;20674;-76
2022/05/30 07:33:53;;;;;;;5.10;1.97;;;14.20;96.30;;;;;;4965407;28;20253;-77
2022/05/30 07:36:25;;;;;;;3.80;2.40;;;14.60;96.30;;;;;;4973299;28;20997;-77
2022/05/30 07:38:51;;;;;;;2.20;1.93;;;15.40;96.30;;;;;;4973277;28;20268;-78
2022/05/30 07:41:18;;;;;;;4.33;2.63;;;15.40;96.30;;;;;;4973246;28;20430;-77
2022/05/30 07:43:45;;;;;;;3.20;1.87;;;15.30;96.30;;;;;;4973308;28;20413;-77
2022/05/30 07:46:12;;;;;;;2.40;2.07;;;14.60;96.30;;;;;;4973381;28;20463;-77
2022/05/30 07:48:38;;;;;;;2.90;2.37;;;13.90;96.30;;;;;;4973103;28;20425;-77
2022/05/30 07:51:05;;;;;;;2.70;2.47;;;13.80;96.30;;;;;;4973263;28;20421;-76
2022/05/30 07:53:31;;;;;;;2.63;2.40;;;13.50;96.30;;;;;;4973350;28;20422;-77
2022/05/30 07:55:58;;;;;;;2.53;1.90;;;13.70;96.30;;;;;;4973170;28;20427;-77
2022/05/30 07:58:24;;;;;;;2.40;1.63;;;14.00;96.30;;;;;;4971370;28;20465;-77
2022/05/30 08:00:52;;;;;;;3.23;2.10;;;13.80;96.30;;;;;;4973212;28;20462;-77
2022/05/30 08:03:17;;;;;;;2.20;2.00;;;13.60;96.30;;;;;;4965329;28;20562;-76
2022/05/30 08:05:44;;;;;;;3.00;2.40;;;13.70;96.30;;;;;;4972955;28;20476;-77
2022/05/30 08:08:11;;;;;;;2.47;2.10;;;13.40;96.30;;;;;;4973040;28;20167;-77
2022/05/30 08:10:36;;;;;;;4.37;2.60;;;13.20;96.30;;;;;;4973059;28;20793;-77
2022/05/30 08:13:02;;;;;;;3.10;2.00;;;13.40;96.30;;;;;;4972940;28;20415;-76
2022/05/30 08:15:28;;;;;;;3.93;2.30;;;13.80;96.30;;;;;;4972968;28;20178;-77
2022/05/30 08:17:58;;;;;;;3.80;2.13;;;14.90;96.30;;;;;;4972715;28;20577;-76
2022/05/30 08:20:26;;;;;;;3.90;1.97;;;16.40;94.00;;;;;;4973446;28;20174;-77
2022/05/30 08:22:51;;;;;;;1.70;1.60;;;17.50;96.30;;;;;;4974653;28;20422;-77
2022/05/30 08:25:19;;;;;;;3.80;2.17;;;17.90;94.20;;;;;;4975266;28;20460;-77
2022/05/30 08:27:45;;;;;;;2.10;1.70;;;18.20;95.80;;;;;;4973464;28;20174;-79
2022/05/30 08:30:15;;;;;;;3.90;1.70;;;18.30;87.50;;;;;;4962792;28;20419;-78
2022/05/30 08:32:42;;;;;;;1.80;1.30;;;17.70;90.20;;;;;;4953603;28;20461;-78
2022/05/30 08:35:10;;;;;;;4.00;1.87;;;17.00;89.00;;;;;;4953383;28;20910;-78
2022/05/30 08:37:37;;;;;;;1.30;1.20;;;17.90;96.30;;;;;;4954758;29;20426;-78
2022/05/30 08:43:10;;;;;;;3.47;1.50;;;18.70;92.80;;;;;;4957008;29;20434;-78
2022/05/30 08:45:36;;;;;;;4.37;2.03;;;18.70;91.30;;;;;;4956773;28;20558;-77
2022/05/30 08:48:02;;;;;;;4.33;2.10;;;18.20;94.50;;;;;;4956680;28;20840;-77
2022/05/30 08:50:56;;;;;;;3.60;1.90;;;18.50;94.30;;;;;;4955372;28;20485;-78
2022/05/30 08:53:43;;;;;;;3.00;2.27;;;19.70;96.30;;;;;;4956826;29;20403;-78
2022/05/30 08:56:26;;;;;;;2.97;1.57;;;20.50;87.70;;;;;;4956696;28;20787;-77
2022/05/30 08:59:18;;;;;;;3.90;1.57;;;21.00;86.30;;;;;;4958936;28;20427;-78
2022/05/30 09:01:50;;;;;;;1.73;1.60;;;21.30;83.90;;;;;;4968345;28;20805;-78
2022/05/30 09:04:29;;;;;;;1.73;1.30;;;22.40;79.40;;;;;;4975003;28;20417;-78
2022/05/30 09:07:09;;;;;;;2.80;1.40;;;21.60;80.50;;;;;;4956333;28;20847;-78
2022/05/30 09:09:54;;;;;;;1.93;1.47;;;21.70;84.70;;;;;;4954702;29;20442;-78
2022/05/30 09:12:45;;;;;;;2.07;1.30;;;22.00;81.40;;;;;;4956324;28;20454;-79
2022/05/30 09:15:16;;;;;;;2.93;1.43;;;20.30;80.40;;;;;;4956209;28;20910;-78
2022/05/30 09:18:18;;;;;;;2.50;1.40;;;19.30;82.80;;;;;;4955904;28;20426;-78
2022/05/30 09:20:44;;;;;;;2.53;1.33;;;19.70;86.70;;;;;;4881055;29;20448;-78
2022/05/30 09:23:11;;;;;;;2.60;1.20;;;18.80;83.80;;;;;;4938647;29;20485;-78
2022/05/30 09:25:57;;;;;;;1.60;1.03;;;19.20;88.10;;;;;;4956033;28;20597;-78
2022/05/30 09:28:32;;;;;;;1.30;1.00;;;19.80;90.70;;;;;;4954604;29;20650;-78
2022/05/30 09:31:10;;;;;;;3.50;1.03;;;19.20;83.50;;;;;;4954633;29;20866;-78
2022/05/30 09:33:39;;;;;;;1.40;1.03;;;19.20;87.00;;;;;;4958435;28;21138;-78
2022/05/30 09:36:18;;;;;;;5.07;1.17;;;17.70;86.10;;;;;;4960208;28;20454;-78
2022/05/30 09:38:50;;;;;;;1.97;1.20;;;17.00;89.20;;;;;;4955664;28;20785;-78
2022/05/30 09:41:20;;;;;;;2.50;1.43;;;17.40;89.70;;;;;;4955760;28;20446;-77
2022/05/30 09:43:55;;;;;;;3.17;1.30;;;18.00;87.30;;;;;;4955797;28;20414;-78
2022/05/30 09:46:58;;;;;;;2.83;1.20;;;17.90;87.30;;;;;;4955605;28;20478;-79
2022/05/30 09:49:42;;;;;;;2.17;1.40;;;18.40;86.70;;;;;;4971306;28;20428;-79
2022/05/30 09:52:28;;;;;;;5.57;1.30;;;19.40;91.60;;;;;;4975276;28;20422;-78
2022/05/30 09:54:54;;;;;;;4.30;1.47;;;19.00;84.50;;;;;;4975066;28;20426;-78
2022/05/30 09:57:27;;;;;;;3.40;1.20;;;16.60;90.30;;;;;;4975460;28;20988;-79
2022/05/30 09:59:56;;;;;;;2.33;1.10;;;15.50;95.30;;;;;;4977300;28;20178;-78
2022/05/30 10:02:21;;;;;;;2.60;1.13;;;15.10;96.30;;;;;;4977633;28;20979;-79
2022/05/30 10:04:56;;;;;;;3.23;1.00;;;15.20;96.30;;;;;;4975839;28;20449;-79
2022/05/30 10:07:22;;;;;;;5.40;1.20;;;15.50;95.60;;;;;;4975842;28;20174;-79
2022/05/30 10:09:51;;;;;;;2.17;1.00;;;15.20;96.30;;;;;;4975848;28;20430;-79
2022/05/30 10:12:44;;;;;;;1.53;0.90;;;15.30;96.30;;;;;;4975656;28;20432;-79
2022/05/30 10:15:27;;;;;;;1.90;1.20;;;15.00;96.30;;;;;;4976047;28;20750;-76
2022/05/30 10:17:54;;;;;;;2.60;0.97;;;14.90;96.30;;;;;;4974841;28;20801;-76
2022/05/30 10:47:55;;;;;;;1.87;1.70;;;14.90;96.30;;;;;;4933306;29;20874;-75
2022/05/30 11:16:51;;;;;;;1.73;1.10;;;12.20;96.30;;;;;;4952653;29;20486;-78
2022/05/30 11:19:27;;;;;;;4.57;1.40;;;12.00;96.30;;;;;;4953978;29;20414;-78
2022/05/30 11:22:09;;;;;;;3.77;1.50;;;11.90;96.30;;;;;;4977200;28;20522;-78
2022/05/30 11:24:37;;;;;;;4.17;1.77;;;12.10;96.30;;;;;;4975223;28;20980;-78
2022/05/30 11:27:08;;;;;;;1.63;1.10;;;12.80;96.30;;;;;;4993286;28;20881;-82
2022/05/30 11:29:52;;;;;;;5.73;1.27;;;12.60;96.30;;;;;;4975681;28;20423;-82
2022/05/30 11:32:45;;;;;;;2.00;1.10;;;12.20;96.30;;;;;;4992729;28;20485;-82
2022/05/30 11:35:38;;;;;;;1.87;1.43;;;11.60;96.30;;;;;;4993018;28;20420;-82
2022/05/30 11:38:22;;;;;;;4.20;2.03;;;11.10;96.30;;;;;;4975097;28;20408;-77
2022/05/30 11:41:00;;;;;;;2.73;1.47;;;10.80;96.30;;;;;;4992615;28;20508;-77
2022/05/30 11:43:31;;;;;;;3.43;1.80;;;11.00;96.30;;;;;;4992590;28;20471;-77
2022/05/30 11:46:31;;;;;;;3.37;1.90;;;11.30;96.30;;;;;;4992665;28;20464;-78
2022/05/30 11:49:12;;;;;;;1.70;1.60;;;11.40;96.30;;;;;;4910448;28;20433;-79
2022/05/30 11:52:15;;;;;;;4.23;1.60;;;11.90;96.30;;;;;;4993362;28;20846;-79
2022/05/30 11:55:21;;;;;;;2.20;1.70;;;12.50;96.30;;;;;;4965468;28;20426;-81
2022/05/30 11:57:54;;;;;;;3.17;1.60;;;12.70;96.30;;;;;;4921167;29;20904;-81
2022/05/30 12:00:45;;;;;;;3.30;1.77;;;12.80;96.30;;;;;;4954773;29;20961;-81
2022/05/30 12:03:43;;;;;;;2.00;1.77;;;13.40;96.30;;;;;;4953178;29;20802;-82
2022/05/30 12:06:11;;;;;;;1.90;1.43;;;13.50;96.30;;;;;;4954088;28;20805;-81
2022/05/30 12:08:54;;;;;;;2.23;1.60;;;14.00;96.30;;;;;;4967480;28;20458;-80
2022/05/30 12:11:51;;;;;;;2.30;1.60;;;14.80;96.30;;;;;;4988545;28;20432;-80
2022/05/30 12:15:00;;;;;;;1.50;1.37;;;15.30;96.30;;;;;;4987424;28;20532;-79
2022/05/30 12:23:50;;;;;;;5.37;1.53;;;14.60;96.30;;;;;;5005364;28;20460;-78
2022/05/30 12:26:36;;;;;;;1.73;1.43;;;14.30;96.30;;;;;;4990238;28;20522;-79
2022/05/30 12:29:02;;;;;;;1.87;1.30;;;14.20;96.30;;;;;;5011646;28;20491;-78
2022/05/30 12:31:38;;;;;;;1.63;1.10;;;14.10;96.30;;;;;;5012584;28;20451;-79
2022/05/30 12:34:06;;;;;;;2.37;1.57;;;14.20;96.30;;;;;;5003536;28;20306;-80
2022/05/30 12:36:37;;;;;;;3.10;1.87;;;14.10;96.30;;;;;;4964490;28;20432;-79
2022/05/30 12:39:30;;;;;;;1.60;1.50;;;14.20;96.30;;;;;;4978886;28;20410;-80
2022/05/30 12:41:58;;;;;;;3.50;1.33;;;13.90;96.30;;;;;;4979363;28;20456;-80
2022/05/30 12:44:45;;;;;;;1.93;1.30;;;13.70;96.30;;;;;;4978141;28;20763;-79
2022/05/30 12:47:28;;;;;;;1.57;1.47;;;13.80;96.30;;;;;;4961011;28;20422;-80
2022/05/30 12:50:15;;;;;;;2.57;1.50;;;13.70;96.30;;;;;;4977657;28;20421;-79
2022/05/30 12:52:57;;;;;;;1.40;1.30;;;14.00;96.30;;;;;;4960082;28;20466;-79
2022/05/30 12:55:39;;;;;;;3.27;1.70;;;14.10;96.30;;;;;;4976669;28;20456;-77
2022/05/30 12:58:05;;;;;;;2.13;1.50;;;14.00;96.30;;;;;;4958470;28;20432;-77
2022/05/30 13:00:40;;;;;;;3.40;1.67;;;14.00;96.30;;;;;;4975879;28;20418;-77
2022/05/30 13:03:35;;;;;;;2.47;1.60;;;14.00;96.30;;;;;;4975897;28;20932;-80
2022/05/30 13:06:18;;;;;;;8.30;1.37;;;13.70;96.30;;;;;;4975882;28;20457;-82
2022/05/30 13:09:01;;;;;;;4.33;1.53;;;13.60;96.30;;;;;;4974348;28;20438;-77
2022/05/30 13:11:33;;;;;;;1.83;1.60;;;13.50;96.30;;;;;;4972700;28;20977;-76
2022/05/30 13:14:30;;;;;;;2.00;1.60;;;13.40;96.30;;;;;;4974729;28;20425;-77
2022/05/30 13:17:05;;;;;;;2.27;1.60;;;13.30;96.30;;;;;;4971436;28;20472;-78
2022/05/30 13:19:30;;;;;;;3.90;1.70;;;13.20;96.30;;;;;;4975452;28;20916;-78
2022/05/30 13:21:56;;;;;;;2.97;1.67;;;13.20;96.30;;;;;;4982000;28;20436;-81
2022/05/30 13:24:35;;;;;;;3.73;2.00;;;13.00;96.30;;;;;;4963746;28;20214;-81
2022/05/30 13:27:01;;;;;;;2.30;1.57;;;13.00;96.30;;;;;;4977052;28;20793;-80
2022/05/30 13:29:35;;;;;;;16.27;2.00;;;13.10;96.30;;;;;;4994671;28;21900;-81
2022/05/30 13:32:04;;;;;;;2.43;1.50;;;12.80;96.30;;;;;;4968719;28;20212;-80
2022/05/30 13:34:32;;;;;;;1.83;1.27;;;12.80;96.30;;;;;;4977660;28;20498;-81
2022/05/30 13:37:00;;;;;;;2.00;1.60;;;12.80;96.30;;;;;;4977895;28;20426;-81
2022/05/30 13:39:26;;;;;;;4.40;1.83;;;12.60;96.30;;;;;;4975609;29;20438;-77
2022/05/30 13:41:52;;;;;;;2.93;1.80;;;12.60;96.30;;;;;;4995487;28;20454;-76
2022/05/30 13:44:21;;;;;;;2.80;1.40;;;12.40;96.30;;;;;;4987807;28;20465;-77
2022/05/30 13:46:53;;;;;;;3.00;1.90;;;12.40;96.30;;;;;;4983608;28;20651;-74
2022/05/30 13:49:35;;;;;;;3.63;2.30;;;12.40;96.30;;;;;;4993521;28;20462;-75
2022/05/30 13:52:03;;;;;;;5.77;1.80;;;12.30;96.30;;;;;;4994350;28;20428;-74
2022/05/30 13:54:30;;;;;;;3.80;1.87;;;12.30;96.30;;;;;;4988061;28;20468;-74
2022/05/30 13:56:57;;;;;;;1.80;1.60;;;12.40;96.30;;;;;;4988647;28;20444;-74
2022/05/30 13:59:36;;;;;;;2.40;1.87;;;12.70;96.30;;;;;;4974965;28;20926;-73
2022/05/30 14:02:26;;;;;;;1.60;1.50;;;12.80;96.30;;;;;;4986414;28;20442;-75
2022/05/30 14:05:33;;;;;;;2.47;1.87;;;12.90;96.30;;;;;;4959681;28;20469;-77
2022/05/30 14:08:03;;;;;;;3.40;1.90;;;12.90;96.30;;;;;;4949298;28;20503;-78
2022/05/30 14:10:29;;;;;;;1.90;1.60;;;13.10;96.30;;;;;;4970207;28;20777;-78
2022/05/30 14:12:55;;;;;;;3.17;1.70;;;13.20;96.30;;;;;;4993938;28;20409;-78
2022/05/30 14:15:29;;;;;;;3.97;2.10;;;13.20;96.30;;;;;;4993843;28;20435;-78
2022/05/30 14:17:55;;;;;;;7.00;2.20;;;13.20;96.30;;;;;;4993665;28;20672;-78
2022/05/30 14:20:23;;;;;;;64.17;44.53;;;13.10;96.30;;;;;;4993792;28;20417;-78
2022/05/30 14:23:04;;;;;;;9.70;8.70;;;13.30;96.30;;;;;;4976528;28;20420;-79
2022/05/30 14:25:48;;;;;;;2.20;1.87;;;12.90;96.30;;;;;;4994144;28;20468;-78
2022/05/30 14:28:26;;;;;;;3.30;2.63;;;12.80;96.30;;;;;;4994634;28;20412;-79
2022/05/30 14:30:53;;;;;;;1.47;1.37;;;12.60;96.30;;;;;;4994841;28;20763;-79
2022/05/30 14:33:24;;;;;;;2.80;1.63;;;12.60;96.30;;;;;;4994734;28;20408;-79
2022/05/30 14:35:51;;;;;;;1.43;1.23;;;12.50;96.30;;;;;;4995280;28;20772;-79
2022/05/30 14:38:26;;;;;;;1.70;1.23;;;12.50;96.30;;;;;;4978109;28;20425;-79
2022/05/30 14:40:59;;;;;;;3.00;1.60;;;12.60;96.30;;;;;;4995831;28;20500;-79
2022/05/30 14:43:30;;;;;;;1.30;1.20;;;12.60;96.30;;;;;;4996105;28;20405;-80
2022/05/30 14:46:04;;;;;;;2.40;1.70;;;12.60;96.30;;;;;;4978244;28;20471;-80
2022/05/30 14:48:31;;;;;;;2.27;1.40;;;12.20;96.30;;;;;;4995962;28;20404;-80
2022/05/30 14:51:03;;;;;;;2.27;1.23;;;12.60;96.30;;;;;;4996522;28;20439;-80
2022/05/30 14:53:32;;;;;;;2.60;1.13;;;12.80;96.30;;;;;;4996753;28;20405;-80
2022/05/30 14:56:04;;;;;;;2.30;1.00;;;13.20;96.30;;;;;;4996586;28;20417;-80
2022/05/30 14:58:47;;;;;;;2.00;0.90;;;13.40;96.30;;;;;;4996611;28;20440;-80
2022/05/30 15:01:19;;;;;;;2.87;1.00;;;13.00;96.30;;;;;;4978942;28;20531;-80
2022/05/30 15:04:05;;;;;;;2.80;1.30;;;13.10;96.30;;;;;;4996845;28;20419;-80
2022/05/30 15:06:39;;;;;;;1.10;0.90;;;12.90;96.30;;;;;;4976407;28;20461;-80
2022/05/30 15:09:08;;;;;;;3.83;1.50;;;12.90;96.30;;;;;;4951854;28;20428;-78
2022/05/30 15:11:33;;;;;;;1.40;1.10;;;13.30;96.30;;;;;;4973520;28;20441;-77
2022/05/30 15:14:21;;;;;;;2.93;1.97;;;13.70;96.30;;;;;;4973532;28;20425;-78
2022/05/30 15:16:47;;;;;;;2.20;1.73;;;14.10;96.30;;;;;;4941807;28;20645;-77
2022/05/30 15:19:13;;;;;;;1.83;1.30;;;13.80;96.30;;;;;;4993401;28;20413;-79
2022/05/30 15:21:47;;;;;;;1.43;1.33;;;14.00;96.30;;;;;;4980068;28;20446;-79
2022/05/30 15:24:18;;;;;;;2.00;1.20;;;14.10;96.30;;;;;;4959928;28;20433;-79
2022/05/30 15:26:44;;;;;;;4.20;1.17;;;14.40;96.30;;;;;;4976906;28;21026;-78
2022/05/30 15:29:10;;;;;;;2.00;1.40;;;14.80;96.30;;;;;;4977006;28;20429;-78
2022/05/30 15:31:36;;;;;;;1.83;1.20;;;15.00;96.30;;;;;;4977668;28;20193;-78
2022/05/30 15:34:03;;;;;;;2.40;1.40;;;14.90;96.30;;;;;;4977103;28;20398;-78
2022/05/30 15:36:28;;;;;;;1.30;1.20;;;14.60;96.30;;;;;;4976636;28;20189;-80
2022/05/30 15:38:54;;;;;;;2.17;1.20;;;14.50;96.30;;;;;;4976653;28;20421;-77
2022/05/30 15:41:20;;;;;;;1.40;1.30;;;14.60;96.30;;;;;;4977240;28;20205;-77
2022/05/30 15:43:47;;;;;;;2.73;1.13;;;14.20;96.30;;;;;;4957757;28;20189;-78
2022/05/30 15:46:17;;;;;;;3.00;1.30;;;14.20;96.30;;;;;;4981182;28;20468;-79
2022/05/30 15:48:44;;;;;;;1.60;1.40;;;14.50;96.30;;;;;;4983559;28;20488;-78
2022/05/30 15:51:14;;;;;;;2.47;1.30;;;14.50;96.30;;;;;;4984906;28;20440;-80
2022/05/30 15:59:15;;;;;;;2.20;1.30;;;14.30;96.30;;;;;;4977143;28;20460;-76
2022/05/30 16:01:41;;;;;;;1.67;1.27;;;14.20;96.30;;;;;;4976922;28;20441;-76
2022/05/30 16:04:08;;;;;;;2.80;1.07;;;14.10;96.30;;;;;;4976971;28;20428;-76
2022/05/30 16:06:35;;;;;;;1.60;1.03;;;13.90;96.30;;;;;;4959484;28;20492;-76
2022/05/30 16:09:03;;;;;;;2.77;1.53;;;13.70;96.30;;;;;;4976694;28;20444;-76
2022/05/30 16:11:29;;;;;;;2.40;1.30;;;13.70;96.30;;;;;;4976376;28;20437;-79
2022/05/30 16:13:55;;;;;;;1.70;1.30;;;13.50;96.30;;;;;;4972424;28;20437;-79
2022/05/30 16:16:21;;;;;;;1.60;1.10;;;13.60;96.30;;;;;;4962116;29;20702;-77
2022/05/30 16:18:49;;;;;;;1.57;1.30;;;13.60;96.30;;;;;;4990337;28;20185;-80
2022/05/30 16:23:55;;;;;;;4.33;1.90;;;13.80;96.30;;;;;;5523793;23;20488;-77
2022/05/30 16:26:25;;;;;;;1.37;1.00;;;13.70;96.30;;;;;;4961215;28;20457;-79
2022/05/30 16:28:51;;;;;;;2.50;1.43;;;13.50;96.30;;;;;;4956794;29;20431;-79
2022/05/30 16:31:17;;;;;;;1.77;1.43;;;13.20;96.30;;;;;;4964859;29;20482;-79
2022/05/30 16:33:43;;;;;;;4.13;1.30;;;13.00;96.30;;;;;;4939545;28;21179;-78
2022/05/30 16:36:09;;;;;;;5.60;1.37;;;13.00;96.30;;;;;;4946034;29;20263;-78
2022/05/30 16:38:34;;;;;;;1.37;1.27;;;12.90;96.30;;;;;;4939473;29;20195;-79
2022/05/30 16:41:00;;;;;;;1.60;1.50;;;12.90;96.30;;;;;;4953477;29;20227;-81
2022/05/30 16:43:26;;;;;;;3.83;3.07;;;12.80;96.30;;;;;;4942612;29;20191;-80
2022/05/30 16:45:53;;;;;;;3.00;2.70;;;12.50;96.30;;;;;;4941863;29;20470;-82
2022/05/30 16:48:28;;;;;;;4.63;2.17;;;12.40;96.30;;;;;;4929719;29;20180;-77
2022/05/30 16:50:55;;;;;;;3.50;1.70;;;12.10;96.30;;;;;;4947862;29;20438;-77
2022/05/30 16:53:21;;;;;;;2.70;1.40;;;11.90;96.30;;;;;;4947996;29;20468;-79
2022/05/30 16:55:47;;;;;;;4.03;1.87;;;11.70;96.30;;;;;;4919559;29;20426;-78
2022/05/30 16:58:13;;;;;;;5.17;2.77;;;11.50;96.30;;;;;;4917152;29;20443;-78
2022/05/30 17:00:40;;;;;;;4.20;2.90;;;11.20;96.30;;;;;;4919948;29;20460;-76
2022/05/30 17:03:06;;;;;;;2.50;1.73;;;11.20;96.30;;;;;;4933493;29;20255;-78
2022/05/30 17:05:34;;;;;;;4.17;1.57;;;11.40;96.30;;;;;;4933943;29;20497;-79
2022/05/30 17:08:01;;;;;;;4.13;3.77;;;11.70;96.30;;;;;;4954631;28;20426;-79
2022/05/30 17:10:27;;;;;;;10.30;9.30;;;12.00;96.30;;;;;;4954112;29;20434;-80
2022/05/30 17:12:53;;;;;;;10.03;9.00;;;12.40;96.30;;;;;;4953472;28;20815;-79
2022/05/30 17:15:19;;;;;;;25.17;12.80;;;12.50;96.30;;;;;;4955177;29;20431;-81
2022/05/30 17:17:45;;;;;;;10.60;7.50;;;12.50;96.30;;;;;;4939760;29;21113;-80
2022/05/30 17:20:18;;;;;;;10.20;9.07;;;12.50;96.30;;;;;;4922032;29;20448;-79
2022/05/30 17:22:44;;;;;;;7.93;7.20;;;12.30;96.30;;;;;;4922294;29;20849;-80
2022/05/30 17:25:09;;;;;;;3.70;3.40;;;12.20;96.30;;;;;;4959202;29;20501;-79
2022/05/30 17:30:19;;;;;;;3.40;2.90;;;11.90;96.30;;;;;;4958769;29;20300;-79
2022/05/30 17:32:45;;;;;;;2.60;2.40;;;12.00;96.30;;;;;;4954655;29;20419;-78
2022/05/30 17:35:10;;;;;;;3.67;3.27;;;11.90;96.30;;;;;;4935393;29;20675;-80
2022/05/30 17:37:36;;;;;;;3.53;3.23;;;11.80;96.30;;;;;;4936367;29;20188;-79
2022/05/30 17:40:01;;;;;;;3.10;2.10;;;11.70;96.30;;;;;;4955402;29;20668;-77
2022/05/30 17:42:27;;;;;;;3.17;2.87;;;11.70;96.30;;;;;;4955380;29;20203;-78
2022/05/30 17:44:52;;;;;;;2.60;2.20;;;11.60;96.30;;;;;;4953268;29;20674;-78
2022/05/30 17:47:38;;;;;;;3.50;2.70;;;11.50;96.30;;;;;;4950610;29;20202;-81
2022/05/30 17:50:21;;;;;;;4.93;4.43;;;11.40;96.30;;;;;;4953363;28;20249;-81
2022/05/30 17:52:54;;;;;;;4.03;3.63;;;11.40;96.30;;;;;;4937833;29;20547;-79
2022/05/30 17:55:24;;;;;;;6.50;5.27;;;11.40;96.30;;;;;;4953851;29;21135;-78
2022/05/30 17:57:50;;;;;;;5.30;4.80;;;11.30;96.30;;;;;;4935927;29;20423;-78
2022/05/30 18:00:18;;;;;;;11.60;10.10;;;11.30;96.30;;;;;;4935720;29;20754;-77
2022/05/30 18:02:44;;;;;;;18.33;15.80;;;11.20;96.30;;;;;;4950049;29;20415;-78
2022/05/30 18:05:11;;;;;;;7.57;5.03;;;11.10;96.30;;;;;;4954941;29;20458;-79
2022/05/30 18:08:04;;;;;;;14.43;13.03;;;10.90;96.30;;;;;;4954294;28;20179;-78
2022/05/30 18:10:48;;;;;;;7.80;6.07;;;10.90;96.30;;;;;;4954369;29;20418;-78
2022/05/30 18:13:50;;;;;;;6.03;4.03;;;10.80;96.30;;;;;;4954887;29;20406;-79
2022/05/30 18:16:49;;;;;;;3.97;3.60;;;10.80;96.30;;;;;;4955015;29;20394;-78
2022/05/30 18:19:45;;;;;;;5.47;3.93;;;10.80;96.30;;;;;;4954100;29;20919;-78
2022/05/30 18:22:39;;;;;;;10.50;7.07;;;10.80;96.30;;;;;;4957606;28;20430;-78
2022/05/30 18:25:35;;;;;;;10.03;7.30;;;10.70;96.30;;;;;;4973942;28;20519;-78
2022/05/30 18:28:14;;;;;;;8.43;7.20;;;10.60;96.30;;;;;;4956179;28;20406;-76
2022/05/30 18:30:48;;;;;;;5.87;2.60;;;10.70;96.30;;;;;;4973859;28;20512;-78
2022/05/30 18:33:30;;;;;;;11.83;7.57;;;10.60;96.30;;;;;;4969710;28;20410;-77
2022/05/30 18:36:07;;;;;;;13.40;9.50;;;10.50;96.30;;;;;;4954662;29;20419;-80
2022/05/30 18:38:41;;;;;;;9.77;5.10;;;10.50;96.30;;;;;;4936839;29;20509;-78
2022/05/30 18:41:32;;;;;;;10.83;3.53;;;10.40;96.30;;;;;;4954217;29;20480;-77
2022/05/30 18:44:04;;;;;;;4.03;3.67;;;10.40;96.30;;;;;;4972066;28;20418;-76
2022/05/30 18:46:31;;;;;;;7.30;3.27;;;10.30;96.30;;;;;;4973396;28;20478;-76
2022/05/30 18:49:08;;;;;;;3.90;3.50;;;10.20;96.30;;;;;;4973775;28;20412;-78
2022/05/30 18:51:35;;;;;;;14.10;3.80;;;10.10;96.30;;;;;;4973688;28;21032;-76
2022/05/30 18:54:01;;;;;;;6.57;3.77;;;10.10;96.30;;;;;;4956484;28;20840;-78
2022/05/30 18:56:30;;;;;;;2.93;2.63;;;10.10;96.30;;;;;;4973991;28;20825;-78
2022/05/30 18:59:04;;;;;;;6.70;4.60;;;10.20;96.30;;;;;;4973547;28;20414;-76
2022/05/30 19:01:32;;;;;;;4.77;4.33;;;10.20;96.30;;;;;;4973622;28;20437;-77
2022/05/30 19:03:59;;;;;;;3.47;2.60;;;10.30;96.30;;;;;;4973712;28;20979;-77
2022/05/30 19:06:24;;;;;;;7.60;4.70;;;10.20;96.30;;;;;;4956314;28;20819;-76
2022/05/30 19:08:50;;;;;;;4.57;3.27;;;10.10;96.30;;;;;;4973418;28;20492;-76
2022/05/30 19:11:23;;;;;;;8.67;5.00;;;10.10;96.30;;;;;;4956533;28;20697;-77
2022/05/30 19:14:01;;;;;;;10.13;5.83;;;9.90;96.30;;;;;;4973624;28;20221;-76